Time,TemperatureF,DewpointF,PressureIn,WindDirection,WindDirectionDegrees,WindSpeedMPH,WindSpeedGustMPH,Humidity,HourlyPrecipIn,Conditions,Clouds,dailyrainin,SoftwareType,DateUTC
2013-01-02 00:02:00,-1.3,-14.3,29.89,SE,135,1.0,1.0,53,0.00,,,0.00,meteohub,2013-01-02 07:02:00,
2013-01-02 00:07:00,-1.5,-14.4,29.89,SE,135,0.0,1.0,53,0.00,,,0.00,meteohub,2013-01-02 07:07:00,
2013-01-02 00:12:00,-1.5,-14.4,29.89,SE,135,0.0,1.0,53,0.00,,,0.00,meteohub,2013-01-02 07:12:00,
2013-01-02 00:17:00,-1.7,-14.6,29.89,West,270,2.0,2.0,53,0.00,,,0.00,meteohub,2013-01-02 07:17:00,
2013-01-02 00:22:00,-1.7,-14.6,29.89,South,180,0.0,2.0,53,0.00,,,0.00,meteohub,2013-01-02 07:22:00,
2013-01-02 00:27:00,-1.7,-14.6,29.89,SE,135,1.0,2.0,53,0.00,,,0.00,meteohub,2013-01-02 07:27:00,
2013-01-02 00:32:00,-1.7,-14.6,29.89,SE,135,1.0,2.0,53,0.00,,,0.00,meteohub,2013-01-02 07:32:00,
2013-01-02 00:37:00,-1.7,-14.6,29.89,SE,135,1.0,1.0,53,0.00,,,0.00,meteohub,2013-01-02 07:37:00,
2013-01-02 00:42:00,-1.7,-14.6,29.89,SE,135,2.0,2.0,53,0.00,,,0.00,meteohub,2013-01-02 07:42:00,
2013-01-02 00:47:00,-1.7,-14.6,29.89,SE,135,2.0,2.0,53,0.00,,,0.00,meteohub,2013-01-02 07:47:00,
2013-01-02 00:52:00,-1.7,-14.6,29.89,SE,135,2.0,2.0,53,0.00,,,0.00,meteohub,2013-01-02 07:52:00,
2013-01-02 00:57:00,-1.7,-14.6,29.89,SE,135,0.0,2.0,53,0.00,,,0.00,meteohub,2013-01-02 07:57:00,
2013-01-02 01:02:00,-1.8,-14.8,29.89,SE,135,0.0,2.0,53,0.00,,,0.00,meteohub,2013-01-02 08:02:00,
2013-01-02 01:07:00,-1.8,-14.8,29.89,SE,135,0.0,2.0,53,0.00,,,0.00,meteohub,2013-01-02 08:07:00,
2013-01-02 01:12:00,-2.4,-15.3,29.89,SE,135,1.0,1.0,53,0.00,,,0.00,meteohub,2013-01-02 08:12:00,
2013-01-02 01:17:00,-2.7,-15.7,29.89,SW,225,0.0,1.0,53,0.00,,,0.00,meteohub,2013-01-02 08:17:00,
2013-01-02 01:22:00,-3.1,-16.1,29.89,SE,135,0.0,1.0,53,0.00,,,0.00,meteohub,2013-01-02 08:22:00,
2013-01-02 01:27:00,-3.3,-16.6,29.89,SE,135,1.0,1.0,52,0.00,,,0.00,meteohub,2013-01-02 08:27:00,
2013-01-02 01:32:00,-3.6,-16.8,29.89,SE,135,0.0,2.0,52,0.00,,,0.00,meteohub,2013-01-02 08:32:00,
2013-01-02 01:37:00,-4.0,-17.1,29.89,SE,135,0.0,2.0,52,0.00,,,0.00,meteohub,2013-01-02 08:37:00,
2013-01-02 01:42:00,-4.2,-17.0,29.89,SE,135,1.0,1.0,53,0.00,,,0.00,meteohub,2013-01-02 08:42:00,
2013-01-02 01:47:00,-4.2,-17.0,29.89,South,180,0.0,1.0,53,0.00,,,0.00,meteohub,2013-01-02 08:47:00,
2013-01-02 01:52:00,-4.0,-17.1,29.90,South,180,2.0,2.0,52,0.00,,,0.00,meteohub,2013-01-02 08:52:00,
2013-01-02 01:57:00,-4.0,-17.1,29.90,SE,135,0.0,2.0,52,0.00,,,0.00,meteohub,2013-01-02 08:57:00,
2013-01-02 02:02:00,-4.0,-17.1,29.90,SE,135,0.0,2.0,52,0.00,,,0.00,meteohub,2013-01-02 09:02:00,
2013-01-02 02:07:00,-4.0,-17.1,29.90,SE,135,1.0,2.0,52,0.00,,,0.00,meteohub,2013-01-02 09:07:00,
2013-01-02 02:12:00,-3.8,-16.6,29.90,SE,135,0.0,1.0,53,0.00,,,0.00,meteohub,2013-01-02 09:12:00,
2013-01-02 02:17:00,-3.8,-16.6,29.90,SE,135,0.0,1.0,53,0.00,,,0.00,meteohub,2013-01-02 09:17:00,
2013-01-02 02:22:00,-3.6,-16.4,29.90,SE,135,0.0,1.0,53,0.00,,,0.00,meteohub,2013-01-02 09:22:00,
2013-01-02 02:27:00,-3.6,-16.4,29.90,SE,135,1.0,1.0,53,0.00,,,0.00,meteohub,2013-01-02 09:27:00,
2013-01-02 02:32:00,-3.3,-16.1,29.90,SE,135,0.0,1.0,53,0.00,,,0.00,meteohub,2013-01-02 09:32:00,
2013-01-02 02:37:00,-3.3,-15.7,29.90,SE,135,0.0,1.0,54,0.00,,,0.00,meteohub,2013-01-02 09:37:00,
2013-01-02 02:42:00,-3.1,-15.5,29.90,SE,135,2.0,2.0,54,0.00,,,0.00,meteohub,2013-01-02 09:42:00,
2013-01-02 02:47:00,-3.1,-15.5,29.90,SE,135,2.0,2.0,54,0.00,,,0.00,meteohub,2013-01-02 09:47:00,
2013-01-02 02:52:00,-2.9,-15.5,29.90,SE,135,0.0,2.0,54,0.00,,,0.00,meteohub,2013-01-02 09:52:00,
2013-01-02 02:57:00,-2.9,-15.5,29.90,SE,135,0.0,2.0,54,0.00,,,0.00,meteohub,2013-01-02 09:57:00,
2013-01-02 03:02:00,-2.9,-15.5,29.90,SE,135,2.0,2.0,54,0.00,,,0.00,meteohub,2013-01-02 10:02:00,
2013-01-02 03:07:00,-2.9,-15.5,29.90,SE,135,2.0,2.0,54,0.00,,,0.00,meteohub,2013-01-02 10:07:00,
2013-01-02 03:12:00,-2.7,-15.3,29.90,SE,135,0.0,2.0,54,0.00,,,0.00,meteohub,2013-01-02 10:12:00,
2013-01-02 03:17:00,-2.7,-15.3,29.90,SE,135,0.0,2.0,54,0.00,,,0.00,meteohub,2013-01-02 10:17:00,
2013-01-02 03:22:00,-2.7,-15.3,29.90,SE,135,1.0,2.0,54,0.00,,,0.00,meteohub,2013-01-02 10:22:00,
2013-01-02 03:27:00,-2.6,-15.2,29.89,SE,135,2.0,2.0,54,0.00,,,0.00,meteohub,2013-01-02 10:27:00,
2013-01-02 03:32:00,-2.6,-15.2,29.89,West,270,0.0,2.0,54,0.00,,,0.00,meteohub,2013-01-02 10:32:00,
2013-01-02 03:37:00,-2.6,-15.2,29.89,SE,135,1.0,2.0,54,0.00,,,0.00,meteohub,2013-01-02 10:37:00,
2013-01-02 03:42:00,-2.6,-15.2,29.89,SE,135,0.0,2.0,54,0.00,,,0.00,meteohub,2013-01-02 10:42:00,
2013-01-02 03:47:00,-2.6,-15.2,29.88,SE,135,0.0,1.0,54,0.00,,,0.00,meteohub,2013-01-02 10:47:00,
2013-01-02 03:52:00,-2.6,-15.2,29.89,NW,315,0.0,1.0,54,0.00,,,0.00,meteohub,2013-01-02 10:52:00,
2013-01-02 03:57:00,-2.6,-15.2,29.89,SE,135,1.0,0.0,54,0.00,,,0.00,meteohub,2013-01-02 10:57:00,
2013-01-02 04:02:00,-2.6,-15.2,29.88,SE,135,0.0,2.0,54,0.00,,,0.00,meteohub,2013-01-02 11:02:00,
2013-01-02 04:07:00,-2.6,-15.2,29.88,SE,135,2.0,2.0,54,0.00,,,0.00,meteohub,2013-01-02 11:07:00,
2013-01-02 04:12:00,-2.6,-15.2,29.88,SE,135,0.0,2.0,54,0.00,,,0.00,meteohub,2013-01-02 11:12:00,
2013-01-02 04:17:00,-2.7,-15.3,29.89,SE,135,0.0,2.0,54,0.00,,,0.00,meteohub,2013-01-02 11:17:00,
2013-01-02 04:22:00,-2.7,-15.3,29.88,West,270,2.0,2.0,54,0.00,,,0.00,meteohub,2013-01-02 11:22:00,
2013-01-02 04:27:00,-2.7,-15.3,29.89,South,180,0.0,2.0,54,0.00,,,0.00,meteohub,2013-01-02 11:27:00,
2013-01-02 04:32:00,-2.7,-15.3,29.88,SE,135,0.0,2.0,54,0.00,,,0.00,meteohub,2013-01-02 11:32:00,
2013-01-02 04:37:00,-2.6,-15.2,29.88,SE,135,0.0,2.0,54,0.00,,,0.00,meteohub,2013-01-02 11:37:00,
2013-01-02 04:42:00,-2.6,-15.2,29.88,SE,135,0.0,1.0,54,0.00,,,0.00,meteohub,2013-01-02 11:42:00,
2013-01-02 04:47:00,-2.4,-15.0,29.88,SE,135,2.0,2.0,54,0.00,,,0.00,meteohub,2013-01-02 11:47:00,
2013-01-02 04:52:00,-2.4,-15.0,29.88,SE,135,1.0,2.0,54,0.00,,,0.00,meteohub,2013-01-02 11:52:00,
2013-01-02 04:57:00,-2.2,-14.8,29.88,SE,135,0.0,2.0,54,0.00,,,0.00,meteohub,2013-01-02 11:57:00,
2013-01-02 05:02:00,-2.2,-14.8,29.88,SE,135,0.0,2.0,54,0.00,,,0.00,meteohub,2013-01-02 12:02:00,
2013-01-02 05:07:00,-2.2,-14.8,29.88,SE,135,0.0,2.0,54,0.00,,,0.00,meteohub,2013-01-02 12:07:00,
2013-01-02 05:12:00,-2.0,-14.6,29.88,SE,135,0.0,1.0,54,0.00,,,0.00,meteohub,2013-01-02 12:12:00,
2013-01-02 05:17:00,-2.0,-14.6,29.88,SE,135,0.0,1.0,54,0.00,,,0.00,meteohub,2013-01-02 12:17:00,
2013-01-02 05:22:00,-2.0,-14.6,29.88,SE,135,0.0,1.0,54,0.00,,,0.00,meteohub,2013-01-02 12:22:00,
2013-01-02 05:27:00,-2.0,-14.6,29.88,SE,135,0.0,1.0,54,0.00,,,0.00,meteohub,2013-01-02 12:27:00,
2013-01-02 05:32:00,-2.0,-14.6,29.88,SE,135,0.0,1.0,54,0.00,,,0.00,meteohub,2013-01-02 12:32:00,
2013-01-02 05:37:00,-1.8,-14.4,29.88,SE,135,1.0,1.0,54,0.00,,,0.00,meteohub,2013-01-02 12:37:00,
2013-01-02 05:42:00,-1.8,-14.4,29.88,SE,135,0.0,2.0,54,0.00,,,0.00,meteohub,2013-01-02 12:42:00,
2013-01-02 05:47:00,-1.8,-14.4,29.88,SE,135,1.0,2.0,54,0.00,,,0.00,meteohub,2013-01-02 12:47:00,
2013-01-02 05:52:00,-1.8,-14.4,29.88,SE,135,1.0,2.0,54,0.00,,,0.00,meteohub,2013-01-02 12:52:00,
2013-01-02 05:57:00,-1.8,-14.4,29.89,SE,135,0.0,1.0,54,0.00,,,0.00,meteohub,2013-01-02 12:57:00,
2013-01-02 06:02:00,-1.7,-14.3,29.89,SE,135,0.0,2.0,54,0.00,,,0.00,meteohub,2013-01-02 13:02:00,
2013-01-02 06:07:00,-1.7,-14.3,29.89,SE,135,0.0,2.0,54,0.00,,,0.00,meteohub,2013-01-02 13:07:00,
2013-01-02 06:12:00,-1.7,-14.3,29.89,SE,135,1.0,2.0,54,0.00,,,0.00,meteohub,2013-01-02 13:12:00,
2013-01-02 06:17:00,-1.7,-14.3,29.89,SE,135,0.0,1.0,54,0.00,,,0.00,meteohub,2013-01-02 13:17:00,
2013-01-02 06:22:00,-1.7,-14.3,29.89,SE,135,1.0,1.0,54,0.00,,,0.00,meteohub,2013-01-02 13:22:00,
2013-01-02 06:27:00,-1.7,-14.3,29.89,SE,135,1.0,1.0,54,0.00,,,0.00,meteohub,2013-01-02 13:27:00,
2013-01-02 06:32:00,-1.7,-14.3,29.88,SE,135,1.0,1.0,54,0.00,,,0.00,meteohub,2013-01-02 13:32:00,
2013-01-02 06:37:00,-1.7,-14.3,29.89,SE,135,0.0,1.0,54,0.00,,,0.00,meteohub,2013-01-02 13:37:00,
2013-01-02 06:42:00,-1.7,-14.3,29.88,SE,135,2.0,2.0,54,0.00,,,0.00,meteohub,2013-01-02 13:42:00,
2013-01-02 06:47:00,-1.8,-14.4,29.89,SE,135,0.0,2.0,54,0.00,,,0.00,meteohub,2013-01-02 13:47:00,
2013-01-02 06:52:00,-1.8,-14.4,29.89,SE,135,0.0,2.0,54,0.00,,,0.00,meteohub,2013-01-02 13:52:00,
2013-01-02 06:57:00,-1.8,-14.8,29.89,SE,135,0.0,2.0,53,0.00,,,0.00,meteohub,2013-01-02 13:57:00,
2013-01-02 07:02:00,-1.8,-14.8,29.89,SE,135,1.0,2.0,53,0.00,,,0.00,meteohub,2013-01-02 14:02:00,
2013-01-02 07:07:00,-1.8,-14.8,29.89,SE,135,1.0,2.0,53,0.00,,,0.00,meteohub,2013-01-02 14:07:00,
2013-01-02 07:12:00,-1.8,-14.4,29.89,SE,135,0.0,2.0,54,0.00,,,0.00,meteohub,2013-01-02 14:12:00,
2013-01-02 07:17:00,-1.8,-14.4,29.89,SE,135,1.0,1.0,54,0.00,,,0.00,meteohub,2013-01-02 14:17:00,
2013-01-02 07:22:00,-1.8,-14.4,29.90,SE,135,0.0,1.0,54,0.00,,,0.00,meteohub,2013-01-02 14:22:00,
2013-01-02 07:27:00,-1.8,-14.4,29.90,SE,135,0.0,1.0,54,0.00,,,0.00,meteohub,2013-01-02 14:27:00,
2013-01-02 07:32:00,-1.7,-14.3,29.90,SE,135,0.0,1.0,54,0.00,,,0.00,meteohub,2013-01-02 14:32:00,
2013-01-02 07:37:00,-1.5,-14.1,29.90,SE,135,2.0,2.0,54,0.00,,,0.00,meteohub,2013-01-02 14:37:00,
2013-01-02 07:42:00,-1.5,-14.1,29.90,SE,135,0.0,2.0,54,0.00,,,0.00,meteohub,2013-01-02 14:42:00,
2013-01-02 07:47:00,-1.3,-13.9,29.89,SE,135,2.0,2.0,54,0.00,,,0.00,meteohub,2013-01-02 14:47:00,
2013-01-02 07:52:00,-0.9,-13.2,29.90,SW,225,1.0,2.0,55,0.00,,,0.00,meteohub,2013-01-02 14:52:00,
2013-01-02 07:57:00,-0.8,-13.0,29.89,SE,135,1.0,2.0,55,0.00,,,0.00,meteohub,2013-01-02 14:57:00,
2013-01-02 08:02:00,-0.8,-13.0,29.89,West,270,1.0,2.0,55,0.00,,,0.00,meteohub,2013-01-02 15:02:00,
2013-01-02 08:07:00,-0.4,-13.0,29.90,SE,135,1.0,2.0,54,0.00,,,0.00,meteohub,2013-01-02 15:07:00,
2013-01-02 08:12:00,-0.2,-12.8,29.89,SE,135,1.0,2.0,54,0.00,,,0.00,meteohub,2013-01-02 15:12:00,
2013-01-02 08:17:00,0.1,-12.6,29.89,West,270,1.0,2.0,54,0.00,,,0.00,meteohub,2013-01-02 15:17:00,
2013-01-02 08:22:00,0.5,-12.3,29.89,East,90,0.0,2.0,54,0.00,,,0.00,meteohub,2013-01-02 15:22:00,
2013-01-02 08:27:00,0.9,-11.6,29.90,SE,135,0.0,3.0,55,0.00,,,0.00,meteohub,2013-01-02 15:27:00,
2013-01-02 08:32:00,1.4,-9.6,29.90,South,180,1.0,3.0,59,0.00,,,0.00,meteohub,2013-01-02 15:32:00,
2013-01-02 08:37:00,1.8,-9.2,29.90,West,270,3.0,3.0,59,0.00,,,0.00,meteohub,2013-01-02 15:37:00,
2013-01-02 08:42:00,2.3,-8.7,29.90,SW,225,2.0,3.0,59,0.00,,,0.00,meteohub,2013-01-02 15:42:00,
2013-01-02 08:47:00,2.8,-8.3,29.91,NW,315,2.0,3.0,59,0.00,,,0.00,meteohub,2013-01-02 15:47:00,
2013-01-02 08:53:00,3.2,-8.3,29.91,NW,315,2.0,3.0,58,0.00,,,0.00,meteohub,2013-01-02 15:53:00,
2013-01-02 08:58:00,3.6,-8.0,29.91,NW,315,1.0,3.0,58,0.00,,,0.00,meteohub,2013-01-02 15:58:00,
2013-01-02 09:03:00,3.7,-7.8,29.91,NW,315,3.0,3.0,58,0.00,,,0.00,meteohub,2013-01-02 16:03:00,
2013-01-02 09:08:00,4.5,-7.4,29.91,West,270,2.0,3.0,57,0.00,,,0.00,meteohub,2013-01-02 16:08:00,
2013-01-02 09:13:00,5.0,-7.2,29.91,SE,135,1.0,3.0,56,0.00,,,0.00,meteohub,2013-01-02 16:13:00,
2013-01-02 09:18:00,5.4,-6.9,29.91,NW,315,2.0,3.0,56,0.00,,,0.00,meteohub,2013-01-02 16:18:00,
2013-01-02 09:23:00,5.5,-7.1,29.91,NW,315,2.0,3.0,55,0.00,,,0.00,meteohub,2013-01-02 16:23:00,
2013-01-02 09:28:00,5.7,-6.9,29.91,West,270,1.0,3.0,55,0.00,,,0.00,meteohub,2013-01-02 16:28:00,
2013-01-02 09:33:00,6.1,-6.7,29.91,South,180,1.0,3.0,55,0.00,,,0.00,meteohub,2013-01-02 16:33:00,
2013-01-02 09:38:00,6.1,-7.1,29.91,North,0,2.0,3.0,54,0.00,,,0.00,meteohub,2013-01-02 16:38:00,
2013-01-02 09:43:00,6.1,-7.1,29.91,SE,135,2.0,4.0,54,0.00,,,0.00,meteohub,2013-01-02 16:43:00,
2013-01-02 09:48:00,6.1,-7.4,29.91,NW,315,2.0,4.0,53,0.00,,,0.00,meteohub,2013-01-02 16:48:00,
2013-01-02 09:54:00,6.4,-7.1,29.91,NW,315,3.0,4.0,53,0.00,,,0.00,meteohub,2013-01-02 16:54:00,
2013-01-02 09:59:00,6.8,-7.1,29.91,West,270,3.0,4.0,52,0.00,,,0.00,meteohub,2013-01-02 16:59:00,
2013-01-02 10:04:00,7.0,-7.4,29.91,SE,135,3.0,4.0,51,0.00,,,0.00,meteohub,2013-01-02 17:04:00,
2013-01-02 10:09:00,7.0,-7.4,29.91,West,270,0.0,4.0,51,0.00,,,0.00,meteohub,2013-01-02 17:09:00,
2013-01-02 10:14:00,7.5,-7.2,29.90,WNW,293,2.0,4.0,50,0.00,,,0.00,meteohub,2013-01-02 17:14:00,
2013-01-02 10:19:00,7.7,-7.1,29.90,NW,315,1.0,3.0,50,0.00,,,0.00,meteohub,2013-01-02 17:19:00,
2013-01-02 10:24:00,8.1,-6.7,29.91,SE,135,0.0,2.0,50,0.00,,,0.00,meteohub,2013-01-02 17:24:00,
2013-01-02 10:29:00,8.4,-6.3,29.91,North,0,2.0,3.0,50,0.00,,,0.00,meteohub,2013-01-02 17:29:00,
2013-01-02 10:34:00,8.8,-6.5,29.91,North,0,6.0,6.0,49,0.00,,,0.00,meteohub,2013-01-02 17:34:00,
2013-01-02 10:39:00,9.0,-6.3,29.90,SE,135,1.0,4.0,49,0.00,,,0.00,meteohub,2013-01-02 17:39:00,
2013-01-02 10:44:00,9.0,-6.7,29.91,NW,315,4.0,6.0,48,0.00,,,0.00,meteohub,2013-01-02 17:44:00,
2013-01-02 10:49:00,9.1,-6.5,29.91,West,270,2.0,6.0,48,0.00,,,0.00,meteohub,2013-01-02 17:49:00,
2013-01-02 10:54:00,9.9,-6.0,29.90,West,270,2.0,5.0,48,0.00,,,0.00,meteohub,2013-01-02 17:54:00,
2013-01-02 10:59:00,9.7,-6.2,29.90,NW,315,1.0,7.0,48,0.00,,,0.00,meteohub,2013-01-02 17:59:00,
2013-01-02 11:04:00,9.9,-6.0,29.90,SW,225,3.0,7.0,48,0.00,,,0.00,meteohub,2013-01-02 18:04:00,
2013-01-02 11:10:00,10.6,-3.6,29.90,NW,315,2.0,7.0,52,0.00,,,0.00,meteohub,2013-01-02 18:10:00,
2013-01-02 11:15:00,10.9,-3.3,29.90,SE,135,1.0,4.0,52,0.00,,,0.00,meteohub,2013-01-02 18:15:00,
2013-01-02 11:20:00,11.3,-2.9,29.89,West,270,2.0,6.0,52,0.00,,,0.00,meteohub,2013-01-02 18:20:00,
2013-01-02 11:25:00,11.7,-2.6,29.89,SW,225,3.0,6.0,52,0.00,,,0.00,meteohub,2013-01-02 18:25:00,
2013-01-02 11:30:00,12.2,-2.6,29.90,NW,315,2.0,6.0,51,0.00,,,0.00,meteohub,2013-01-02 18:30:00,
2013-01-02 11:35:00,12.2,-2.6,29.89,NE,45,3.0,6.0,51,0.00,,,0.00,meteohub,2013-01-02 18:35:00,
2013-01-02 11:40:00,12.2,-3.3,29.89,West,270,4.0,5.0,49,0.00,,,0.00,meteohub,2013-01-02 18:40:00,
2013-01-02 11:45:00,12.0,-3.1,29.89,NW,315,2.0,5.0,50,0.00,,,0.00,meteohub,2013-01-02 18:45:00,
2013-01-02 11:50:00,11.8,-3.6,29.89,NW,315,2.0,5.0,49,0.00,,,0.00,meteohub,2013-01-02 18:50:00,
2013-01-02 11:55:00,12.4,-3.6,29.89,SE,135,3.0,8.0,48,0.00,,,0.00,meteohub,2013-01-02 18:55:00,
2013-01-02 12:00:00,14.2,-2.4,29.89,NW,315,11.0,11.0,47,0.00,,,0.00,meteohub,2013-01-02 19:00:00,
2013-01-02 12:05:00,14.0,-3.5,29.89,NW,315,5.0,11.0,45,0.00,,,0.00,meteohub,2013-01-02 19:05:00,
2013-01-02 12:10:00,14.0,-3.5,29.89,South,180,4.0,11.0,45,0.00,,,0.00,meteohub,2013-01-02 19:10:00,
2013-01-02 12:15:00,13.6,-3.3,29.89,North,0,4.0,11.0,46,0.00,,,0.00,meteohub,2013-01-02 19:15:00,
2013-01-02 12:20:00,13.8,-3.1,29.89,NW,315,3.0,6.0,46,0.00,,,0.00,meteohub,2013-01-02 19:20:00,
2013-01-02 12:25:00,13.8,-3.1,29.89,NW,315,2.0,8.0,46,0.00,,,0.00,meteohub,2013-01-02 19:25:00,
2013-01-02 12:30:00,13.3,-4.2,29.88,SW,225,4.0,9.0,45,0.00,,,0.00,meteohub,2013-01-02 19:30:00,
2013-01-02 12:36:00,13.6,-3.3,29.88,North,0,4.0,9.0,46,0.00,,,0.00,meteohub,2013-01-02 19:36:00,
2013-01-02 12:41:00,13.5,-3.5,29.88,SE,135,2.0,9.0,46,0.00,,,0.00,meteohub,2013-01-02 19:41:00,
2013-01-02 12:46:00,13.1,-3.8,29.88,North,0,6.0,8.0,46,0.00,,,0.00,meteohub,2013-01-02 19:46:00,
2013-01-02 12:51:00,13.1,-3.8,29.88,SE,135,2.0,13.0,46,0.00,,,0.00,meteohub,2013-01-02 19:51:00,
2013-01-02 12:56:00,12.9,-4.0,29.88,NW,315,7.0,13.0,46,0.00,,,0.00,meteohub,2013-01-02 19:56:00,
2013-01-02 13:01:00,12.9,-4.0,29.88,East,90,2.0,12.0,46,0.00,,,0.00,meteohub,2013-01-02 20:01:00,
2013-01-02 13:06:00,12.9,-4.0,29.88,East,90,2.0,12.0,46,0.00,,,0.00,meteohub,2013-01-02 20:06:00,
2013-01-02 13:11:00,11.8,-4.5,29.88,NW,315,7.0,12.0,47,0.00,,,0.00,meteohub,2013-01-02 20:11:00,
2013-01-02 13:16:00,12.0,-4.4,29.88,SW,225,4.0,10.0,47,0.00,,,0.00,meteohub,2013-01-02 20:16:00,
2013-01-02 13:21:00,12.2,-4.7,29.88,SE,135,6.0,10.0,46,0.00,,,0.00,meteohub,2013-01-02 20:21:00,
2013-01-02 13:26:00,12.4,-4.5,29.88,West,270,2.0,8.0,46,0.00,,,0.00,meteohub,2013-01-02 20:26:00,
2013-01-02 13:31:00,12.9,-3.5,29.88,West,270,5.0,6.0,47,0.00,,,0.00,meteohub,2013-01-02 20:31:00,
2013-01-02 13:36:00,13.6,-2.4,29.88,West,270,5.0,10.0,48,0.00,,,0.00,meteohub,2013-01-02 20:36:00,
2013-01-02 13:41:00,13.8,-2.2,29.88,NW,315,9.0,10.0,48,0.00,,,0.00,meteohub,2013-01-02 20:41:00,
2013-01-02 13:46:00,13.8,-2.7,29.88,NW,315,8.0,11.0,47,0.00,,,0.00,meteohub,2013-01-02 20:46:00,
2013-01-02 13:51:00,13.8,-2.7,29.88,SE,135,6.0,11.0,47,0.00,,,0.00,meteohub,2013-01-02 20:51:00,
2013-01-02 13:56:00,13.3,-3.1,29.88,West,270,4.0,11.0,47,0.00,,,0.00,meteohub,2013-01-02 20:56:00,
2013-01-02 14:02:00,13.5,-3.1,29.88,West,270,3.0,8.0,47,0.00,,,0.00,meteohub,2013-01-02 21:02:00,
2013-01-02 14:07:00,13.6,-2.9,29.88,NW,315,8.0,8.0,47,0.00,,,0.00,meteohub,2013-01-02 21:07:00,
2013-01-02 14:12:00,13.3,-3.1,29.88,SE,135,1.0,10.0,47,0.00,,,0.00,meteohub,2013-01-02 21:12:00,
2013-01-02 14:17:00,13.8,-2.7,29.88,West,270,5.0,10.0,47,0.00,,,0.00,meteohub,2013-01-02 21:17:00,
2013-01-02 14:22:00,14.0,-3.5,29.88,South,180,2.0,8.0,45,0.00,,,0.00,meteohub,2013-01-02 21:22:00,
2013-01-02 14:27:00,13.8,-3.6,29.88,SE,135,4.0,12.0,45,0.00,,,0.00,meteohub,2013-01-02 21:27:00,
2013-01-02 14:32:00,13.6,-3.8,29.88,West,270,2.0,12.0,45,0.00,,,0.00,meteohub,2013-01-02 21:32:00,
2013-01-02 14:37:00,13.5,-4.4,29.88,West,270,6.0,12.0,44,0.00,,,0.00,meteohub,2013-01-02 21:37:00,
2013-01-02 14:42:00,12.9,-5.4,29.88,West,270,8.0,11.0,43,0.00,,,0.00,meteohub,2013-01-02 21:42:00,
2013-01-02 14:47:00,12.6,-5.6,29.88,West,270,3.0,9.0,43,0.00,,,0.00,meteohub,2013-01-02 21:47:00,
2013-01-02 14:52:00,12.2,-6.0,29.88,NW,315,4.0,11.0,43,0.00,,,0.00,meteohub,2013-01-02 21:52:00,
2013-01-02 14:57:00,11.7,-6.5,29.88,West,270,1.0,11.0,43,0.00,,,0.00,meteohub,2013-01-02 21:57:00,
2013-01-02 15:02:00,11.5,-6.7,29.88,NW,315,7.0,11.0,43,0.00,,,0.00,meteohub,2013-01-02 22:02:00,
2013-01-02 15:07:00,11.5,-6.7,29.88,NW,315,7.0,9.0,43,0.00,,,0.00,meteohub,2013-01-02 22:07:00,
2013-01-02 15:12:00,10.6,-7.4,29.88,NW,315,8.0,8.0,43,0.00,,,0.00,meteohub,2013-01-02 22:12:00,
2013-01-02 15:17:00,10.0,-9.9,29.88,West,270,4.0,8.0,39,0.00,,,0.00,meteohub,2013-01-02 22:17:00,
2013-01-02 15:22:00,9.5,-11.0,29.88,West,270,4.0,9.0,38,0.00,,,0.00,meteohub,2013-01-02 22:22:00,
2013-01-02 15:27:00,9.0,-11.6,29.88,NW,315,11.0,11.0,38,0.00,,,0.00,meteohub,2013-01-02 22:27:00,
2013-01-02 15:32:00,8.4,-11.4,29.88,NW,315,8.0,12.0,39,0.00,,,0.00,meteohub,2013-01-02 22:32:00,
2013-01-02 15:37:00,8.6,-11.7,29.89,NW,315,5.0,12.0,38,0.00,,,0.00,meteohub,2013-01-02 22:37:00,
2013-01-02 15:42:00,8.6,-11.4,29.89,WNW,293,4.0,12.0,39,0.00,,,0.00,meteohub,2013-01-02 22:42:00,
2013-01-02 15:47:00,8.2,-10.7,29.89,South,180,2.0,8.0,41,0.00,,,0.00,meteohub,2013-01-02 22:47:00,
2013-01-02 15:52:00,7.9,-11.0,29.89,WNW,293,1.0,8.0,41,0.00,,,0.00,meteohub,2013-01-02 22:52:00,
2013-01-02 15:57:00,7.3,-11.9,29.89,West,270,4.0,8.0,40,0.00,,,0.00,meteohub,2013-01-02 22:57:00,
2013-01-02 16:02:00,6.8,-12.5,29.89,SW,225,2.0,8.0,40,0.00,,,0.00,meteohub,2013-01-02 23:02:00,
2013-01-02 16:07:00,6.3,-11.9,29.89,West,270,3.0,8.0,42,0.00,,,0.00,meteohub,2013-01-02 23:07:00,
2013-01-02 16:12:00,5.9,-12.3,29.90,NW,315,0.0,8.0,42,0.00,,,0.00,meteohub,2013-01-02 23:12:00,
2013-01-02 16:17:00,5.5,-12.6,29.90,West,270,2.0,4.0,42,0.00,,,0.00,meteohub,2013-01-02 23:17:00,
2013-01-02 16:22:00,5.4,-12.8,29.90,North,0,1.0,4.0,42,0.00,,,0.00,meteohub,2013-01-02 23:22:00,
2013-01-02 16:27:00,5.0,-12.6,29.90,West,270,3.0,4.0,43,0.00,,,0.00,meteohub,2013-01-02 23:27:00,
2013-01-02 16:32:00,4.6,-12.5,29.90,NW,315,2.0,3.0,44,0.00,,,0.00,meteohub,2013-01-02 23:32:00,
2013-01-02 16:37:00,4.3,-12.3,29.90,NW,315,2.0,3.0,45,0.00,,,0.00,meteohub,2013-01-02 23:37:00,
2013-01-02 16:42:00,3.9,-12.6,29.90,SE,135,0.0,3.0,45,0.00,,,0.00,meteohub,2013-01-02 23:42:00,
2013-01-02 16:47:00,3.4,-13.2,29.90,WNW,293,2.0,3.0,45,0.00,,,0.00,meteohub,2013-01-02 23:47:00,
2013-01-02 16:52:00,2.8,-12.8,29.91,SE,135,0.0,4.0,47,0.00,,,0.00,meteohub,2013-01-02 23:52:00,
2013-01-02 16:57:00,2.7,-13.0,29.91,NW,315,4.0,4.0,47,0.00,,,0.00,meteohub,2013-01-02 23:57:00,
2013-01-02 17:02:00,2.3,-12.8,29.91,West,270,2.0,4.0,48,0.00,,,0.00,meteohub,2013-01-03 00:02:00,
2013-01-02 17:07:00,2.3,-12.8,29.91,West,270,2.0,4.0,48,0.00,,,0.00,meteohub,2013-01-03 00:07:00,
2013-01-02 17:12:00,2.1,-12.6,29.91,West,270,2.0,4.0,49,0.00,,,0.00,meteohub,2013-01-03 00:12:00,
2013-01-02 17:17:00,1.9,-12.5,29.91,WNW,293,2.0,3.0,50,0.00,,,0.00,meteohub,2013-01-03 00:17:00,
2013-01-02 17:22:00,1.6,-12.8,29.91,SSE,158,2.0,4.0,50,0.00,,,0.00,meteohub,2013-01-03 00:22:00,
2013-01-02 17:27:00,1.4,-12.5,29.91,West,270,2.0,4.0,51,0.00,,,0.00,meteohub,2013-01-03 00:27:00,
2013-01-02 17:32:00,1.2,-14.3,29.91,West,270,2.0,4.0,47,0.00,,,0.00,meteohub,2013-01-03 00:32:00,
2013-01-02 17:37:00,1.2,-13.9,29.91,NW,315,2.0,4.0,48,0.00,,,0.00,meteohub,2013-01-03 00:37:00,
2013-01-02 17:42:00,1.0,-14.1,29.91,SW,225,1.0,4.0,48,0.00,,,0.00,meteohub,2013-01-03 00:42:00,
2013-01-02 17:47:00,0.7,-14.4,29.91,NW,315,1.0,4.0,48,0.00,,,0.00,meteohub,2013-01-03 00:47:00,
2013-01-02 17:52:00,0.3,-14.8,29.91,SW,225,0.0,2.0,48,0.00,,,0.00,meteohub,2013-01-03 00:52:00,
2013-01-02 17:57:00,0.0,-15.2,29.92,SE,135,0.0,2.0,48,0.00,,,0.00,meteohub,2013-01-03 00:57:00,
2013-01-02 18:02:00,-0.2,-15.2,29.92,NW,315,4.0,4.0,48,0.00,,,0.00,meteohub,2013-01-03 01:02:00,
2013-01-02 18:07:00,-0.4,-15.3,29.93,NW,315,1.0,4.0,48,0.00,,,0.00,meteohub,2013-01-03 01:07:00,
2013-01-02 18:12:00,-0.6,-15.2,29.93,West,270,2.0,4.0,49,0.00,,,0.00,meteohub,2013-01-03 01:12:00,
2013-01-02 18:17:00,-0.6,-15.2,29.93,NE,45,1.0,4.0,49,0.00,,,0.00,meteohub,2013-01-03 01:17:00,
2013-01-02 18:22:00,-0.6,-15.2,29.93,NW,315,1.0,4.0,49,0.00,,,0.00,meteohub,2013-01-03 01:22:00,
2013-01-02 18:27:00,-0.4,-15.0,29.93,SE,135,0.0,4.0,49,0.00,,,0.00,meteohub,2013-01-03 01:27:00,
2013-01-02 18:33:00,-0.2,-14.8,29.93,SE,135,1.0,2.0,49,0.00,,,0.00,meteohub,2013-01-03 01:33:00,
2013-01-02 18:38:00,0.0,-14.6,29.93,SE,135,2.0,2.0,49,0.00,,,0.00,meteohub,2013-01-03 01:38:00,
2013-01-02 18:43:00,0.1,-14.1,29.93,SE,135,0.0,2.0,50,0.00,,,0.00,meteohub,2013-01-03 01:43:00,
2013-01-02 18:48:00,0.1,-14.1,29.93,NE,45,1.0,2.0,50,0.00,,,0.00,meteohub,2013-01-03 01:48:00,
2013-01-02 18:53:00,0.1,-14.1,29.93,NW,315,1.0,2.0,50,0.00,,,0.00,meteohub,2013-01-03 01:53:00,
2013-01-02 18:58:00,0.1,-14.1,29.93,NW,315,1.0,2.0,50,0.00,,,0.00,meteohub,2013-01-03 01:58:00,
2013-01-02 19:03:00,0.1,-14.1,29.93,NW,315,1.0,2.0,50,0.00,,,0.00,meteohub,2013-01-03 02:03:00,
2013-01-02 19:08:00,-0.4,-14.6,29.93,SE,135,1.0,2.0,50,0.00,,,0.00,meteohub,2013-01-03 02:08:00,
2013-01-02 19:13:00,-0.9,-15.2,29.92,SE,135,0.0,1.0,50,0.00,,,0.00,meteohub,2013-01-03 02:13:00,
2013-01-02 19:18:00,-1.3,-15.5,29.93,NW,315,2.0,2.0,50,0.00,,,0.00,meteohub,2013-01-03 02:18:00,
2013-01-02 19:23:00,-1.8,-15.9,29.93,SE,135,0.0,1.0,50,0.00,,,0.00,meteohub,2013-01-03 02:23:00,
2013-01-02 19:28:00,-2.2,-16.6,29.92,SE,135,0.0,2.0,49,0.00,,,0.00,meteohub,2013-01-03 02:28:00,
2013-01-02 19:34:00,-2.7,-16.8,29.92,West,270,0.0,2.0,50,0.00,,,0.00,meteohub,2013-01-03 02:34:00,
2013-01-02 19:39:00,-3.1,-17.1,29.92,SE,135,2.0,2.0,50,0.00,,,0.00,meteohub,2013-01-03 02:39:00,
2013-01-02 19:44:00,-3.3,-17.3,29.92,NW,315,2.0,2.0,50,0.00,,,0.00,meteohub,2013-01-03 02:44:00,
2013-01-02 19:49:00,-3.5,-17.5,29.92,South,180,1.0,5.0,50,0.00,,,0.00,meteohub,2013-01-03 02:49:00,
2013-01-02 19:54:00,-3.8,-17.9,29.92,East,90,2.0,5.0,50,0.00,,,0.00,meteohub,2013-01-03 02:54:00,
2013-01-02 19:59:00,-4.0,-18.0,29.93,NW,315,3.0,5.0,50,0.00,,,0.00,meteohub,2013-01-03 02:59:00,
2013-01-02 20:04:00,-4.0,-18.0,29.93,West,270,2.0,4.0,50,0.00,,,0.00,meteohub,2013-01-03 03:04:00,
2013-01-02 20:09:00,-4.0,-18.0,29.93,NW,315,2.0,4.0,50,0.00,,,0.00,meteohub,2013-01-03 03:09:00,
2013-01-02 20:14:00,-4.0,-18.0,29.93,West,270,2.0,3.0,50,0.00,,,0.00,meteohub,2013-01-03 03:14:00,
2013-01-02 20:19:00,-4.0,-18.0,29.93,West,270,2.0,3.0,50,0.00,,,0.00,meteohub,2013-01-03 03:19:00,
2013-01-02 20:24:00,-4.0,-18.0,29.93,NW,315,1.0,3.0,50,0.00,,,0.00,meteohub,2013-01-03 03:24:00,
2013-01-02 20:30:00,-3.8,-17.3,29.93,NE,45,2.0,4.0,51,0.00,,,0.00,meteohub,2013-01-03 03:30:00,
2013-01-02 20:36:00,-3.6,-17.3,29.93,NW,315,3.0,6.0,51,0.00,,,0.00,meteohub,2013-01-03 03:36:00,
2013-01-02 20:42:00,-3.5,-17.1,29.93,SE,135,2.0,6.0,51,0.00,,,0.00,meteohub,2013-01-03 03:42:00,
2013-01-02 20:47:00,-3.5,-16.6,29.93,West,270,2.0,5.0,52,0.00,,,0.00,meteohub,2013-01-03 03:47:00,
2013-01-02 20:52:00,-3.3,-16.6,29.93,West,270,2.0,5.0,52,0.00,,,0.00,meteohub,2013-01-03 03:52:00,
2013-01-02 20:57:00,-3.1,-16.4,29.94,West,270,2.0,5.0,52,0.00,,,0.00,meteohub,2013-01-03 03:57:00,
2013-01-02 21:02:00,-2.9,-16.2,29.94,West,270,4.0,5.0,52,0.00,,,0.00,meteohub,2013-01-03 04:02:00,
2013-01-02 21:07:00,-2.7,-15.7,29.94,SW,225,1.0,5.0,53,0.00,,,0.00,meteohub,2013-01-03 04:07:00,
2013-01-02 21:12:00,-2.6,-15.5,29.94,NW,315,2.0,5.0,53,0.00,,,0.00,meteohub,2013-01-03 04:12:00,
2013-01-02 21:17:00,-2.6,-15.5,29.94,West,270,4.0,4.0,53,0.00,,,0.00,meteohub,2013-01-03 04:17:00,
2013-01-02 21:22:00,-2.4,-15.3,29.94,West,270,2.0,5.0,53,0.00,,,0.00,meteohub,2013-01-03 04:22:00,
2013-01-02 21:27:00,-2.2,-15.5,29.94,WNW,293,2.0,5.0,52,0.00,,,0.00,meteohub,2013-01-03 04:27:00,
2013-01-02 21:32:00,-2.0,-15.0,29.95,SE,135,2.0,5.0,53,0.00,,,0.00,meteohub,2013-01-03 04:32:00,
2013-01-02 21:37:00,-2.0,-15.0,29.94,West,270,2.0,4.0,53,0.00,,,0.00,meteohub,2013-01-03 04:37:00,
2013-01-02 21:42:00,-1.7,-14.6,29.95,South,180,1.0,4.0,53,0.00,,,0.00,meteohub,2013-01-03 04:42:00,
2013-01-02 21:48:00,-1.5,-14.4,29.95,NW,315,2.0,4.0,53,0.00,,,0.00,meteohub,2013-01-03 04:48:00,
2013-01-02 21:53:00,-1.3,-14.3,29.95,WSW,248,4.0,4.0,53,0.00,,,0.00,meteohub,2013-01-03 04:53:00,
2013-01-02 21:58:00,-1.1,-14.1,29.96,NW,315,2.0,5.0,53,0.00,,,0.00,meteohub,2013-01-03 04:58:00,
2013-01-02 22:00:00,-1.1,-13.7,29.95,East,90,2.0,5.0,54,0.00,,,0.00,meteohub,2013-01-03 05:00:00,
2013-01-02 22:02:00,-1.1,-13.7,29.95,East,90,2.0,5.0,54,0.00,,,0.00,meteohub,2013-01-03 05:02:00,
2013-01-02 22:03:00,-0.9,-13.5,29.96,SE,135,2.0,5.0,54,0.00,,,0.00,meteohub,2013-01-03 05:03:00,
2013-01-02 22:08:00,-1.1,-13.7,29.96,NW,315,4.0,5.0,54,0.00,,,0.00,meteohub,2013-01-03 05:08:00,
2013-01-02 22:13:00,-1.1,-13.7,29.96,NW,315,2.0,4.0,54,0.00,,,0.00,meteohub,2013-01-03 05:13:00,
2013-01-02 22:18:00,-1.1,-14.1,29.96,NW,315,2.0,4.0,53,0.00,,,0.00,meteohub,2013-01-03 05:18:00,
2013-01-02 22:23:00,-1.3,-14.3,29.95,North,0,4.0,7.0,53,0.00,,,0.00,meteohub,2013-01-03 05:23:00,
2013-01-02 22:28:00,-1.7,-14.6,29.95,NW,315,2.0,7.0,53,0.00,,,0.00,meteohub,2013-01-03 05:28:00,
2013-01-02 22:33:00,-2.2,-15.5,29.96,SE,135,0.0,7.0,52,0.00,,,0.00,meteohub,2013-01-03 05:33:00,
2013-01-02 22:39:00,-2.6,-15.9,29.96,SE,135,0.0,4.0,52,0.00,,,0.00,meteohub,2013-01-03 05:39:00,
2013-01-02 22:44:00,-3.1,-16.4,29.96,South,180,1.0,3.0,52,0.00,,,0.00,meteohub,2013-01-03 05:44:00,
2013-01-02 22:49:00,-3.5,-16.6,29.96,SE,135,0.0,3.0,52,0.00,,,0.00,meteohub,2013-01-03 05:49:00,
2013-01-02 22:54:00,-3.6,-17.3,29.96,SE,135,1.0,2.0,51,0.00,,,0.00,meteohub,2013-01-03 05:54:00,
2013-01-02 22:59:00,-4.0,-17.5,29.96,SE,135,0.0,2.0,51,0.00,,,0.00,meteohub,2013-01-03 05:59:00,
2013-01-02 23:04:00,-4.2,-17.3,29.96,SE,135,0.0,2.0,52,0.00,,,0.00,meteohub,2013-01-03 06:04:00,
2013-01-02 23:09:00,-4.5,-17.7,29.97,SE,135,0.0,2.0,52,0.00,,,0.00,meteohub,2013-01-03 06:09:00,
2013-01-02 23:14:00,-5.1,-18.6,29.97,SE,135,0.0,1.0,51,0.00,,,0.00,meteohub,2013-01-03 06:14:00,
2013-01-02 23:19:00,-5.4,-18.9,29.97,SE,135,0.0,1.0,51,0.00,,,0.00,meteohub,2013-01-03 06:19:00,
2013-01-02 23:24:00,-5.8,-19.3,29.97,ESE,113,0.0,1.0,51,0.00,,,0.00,meteohub,2013-01-03 06:24:00,
2013-01-02 23:29:00,-6.2,-19.1,29.96,SE,135,0.0,2.0,52,0.00,,,0.00,meteohub,2013-01-03 06:29:00,
2013-01-02 23:34:00,-6.5,-19.5,29.96,SE,135,0.0,2.0,52,0.00,,,0.00,meteohub,2013-01-03 06:34:00,
2013-01-02 23:39:00,-6.9,-19.8,29.97,SE,135,0.0,2.0,52,0.00,,,0.00,meteohub,2013-01-03 06:39:00,
2013-01-02 23:44:00,-7.2,-20.2,29.97,SE,135,1.0,1.0,52,0.00,,,0.00,meteohub,2013-01-03 06:44:00,
2013-01-02 23:50:00,-7.4,-20.7,29.97,SE,135,0.0,1.0,51,0.00,,,0.00,meteohub,2013-01-03 06:50:00,
2013-01-02 23:55:00,-7.6,-20.9,29.97,SE,135,2.0,2.0,51,0.00,,,0.00,meteohub,2013-01-03 06:55:00,